Time;durP1;ratioP1;P1;durP2;ratioP2;P2;SDS_P1;SDS_P2;PMS_P1;PMS_P2;Temp;Humidity;BMP_temperature;BMP_pressure;BME280_temperature;BME280_humidity;BME280_pressure;Samples;Min_cycle;Max_cycle;Signal;HPM_P1;HPM_P2
2022/05/27 00:01:11;;;;;;;4.15;2.20;;;9.90;93.90;;;;;;5051811;28;20459;-68
2022/05/27 00:03:43;;;;;;;5.82;3.08;;;9.90;94.20;;;;;;5048892;28;20092;-68
2022/05/27 00:06:09;;;;;;;6.50;2.80;;;9.90;94.30;;;;;;5050665;28;20568;-68
2022/05/27 00:08:40;;;;;;;6.53;3.28;;;9.90;94.10;;;;;;5053473;28;20116;-67
2022/05/27 00:11:10;;;;;;;6.25;3.50;;;10.00;94.20;;;;;;5051610;28;20078;-67
2022/05/27 00:13:36;;;;;;;5.07;2.90;;;9.90;94.50;;;;;;5053184;28;20313;-67
2022/05/27 00:16:02;;;;;;;4.25;2.40;;;9.90;94.40;;;;;;5052436;28;20238;-67
2022/05/27 00:18:34;;;;;;;4.20;2.42;;;9.90;94.00;;;;;;5053211;28;20330;-68
2022/05/27 00:21:00;;;;;;;4.90;2.53;;;9.80;94.00;;;;;;5050045;28;20021;-69
2022/05/27 00:23:28;;;;;;;5.05;2.28;;;9.90;93.70;;;;;;5044538;28;20303;-68
2022/05/27 00:25:57;;;;;;;6.20;2.33;;;9.90;93.70;;;;;;5051702;28;20100;-68
2022/05/27 00:28:22;;;;;;;3.92;2.13;;;9.90;94.00;;;;;;5054628;28;20035;-68
2022/05/27 00:30:52;;;;;;;5.72;2.40;;;9.90;93.90;;;;;;5057068;28;20017;-67
2022/05/27 00:33:18;;;;;;;5.80;2.83;;;9.80;94.00;;;;;;5053675;28;20145;-68
2022/05/27 00:35:44;;;;;;;4.35;2.70;;;9.80;93.60;;;;;;5056331;28;20029;-68
2022/05/27 00:38:10;;;;;;;4.35;2.20;;;9.70;93.70;;;;;;5054174;28;20033;-68
2022/05/27 00:40:42;;;;;;;5.47;2.63;;;9.70;93.30;;;;;;5056546;28;20063;-67
2022/05/27 00:43:08;;;;;;;5.85;2.20;;;9.70;93.30;;;;;;5054608;28;20028;-68
2022/05/27 00:45:36;;;;;;;5.90;2.42;;;9.70;93.10;;;;;;5057039;28;20025;-69
2022/05/27 00:48:19;;;;;;;3.30;1.95;;;9.70;93.10;;;;;;5053559;28;20083;-68
2022/05/27 00:50:49;;;;;;;6.47;2.95;;;9.70;93.20;;;;;;5060809;28;20116;-68
2022/05/27 00:53:24;;;;;;;6.00;2.33;;;9.70;93.20;;;;;;5055003;28;20107;-68
2022/05/27 00:55:59;;;;;;;5.28;2.25;;;9.70;93.30;;;;;;5053643;28;20383;-68
2022/05/27 00:58:33;;;;;;;5.82;2.58;;;9.70;93.20;;;;;;5059960;28;20025;-67
2022/05/27 01:00:59;;;;;;;4.45;2.50;;;9.70;93.70;;;;;;5053813;28;20055;-68
2022/05/27 01:03:27;;;;;;;6.97;3.13;;;9.60;93.30;;;;;;5053568;28;20040;-68
2022/05/27 01:05:53;;;;;;;5.78;2.15;;;9.60;93.10;;;;;;5054645;28;20108;-68
2022/05/27 01:08:21;;;;;;;6.63;2.55;;;9.60;92.80;;;;;;5054146;28;20017;-68
2022/05/27 01:11:14;;;;;;;6.22;2.58;;;9.80;92.70;;;;;;5052130;28;20117;-68
2022/05/27 01:14:14;;;;;;;4.65;2.63;;;9.90;94.40;;;;;;5052588;28;20032;-68
2022/05/27 01:17:15;;;;;;;4.75;2.30;;;9.80;94.30;;;;;;5057400;28;20421;-68
2022/05/27 01:22:54;;;;;;;7.35;2.88;;;9.70;94.00;;;;;;5052654;28;20086;-68
2022/05/27 01:25:29;;;;;;;6.93;3.10;;;9.60;93.90;;;;;;5051811;28;20021;-68
2022/05/27 01:28:03;;;;;;;4.82;2.30;;;9.60;93.90;;;;;;5054497;28;20048;-67
2022/05/27 01:30:38;;;;;;;5.32;2.70;;;9.40;93.80;;;;;;5059134;28;20427;-68
2022/05/27 01:33:23;;;;;;;4.40;2.38;;;9.30;93.70;;;;;;5055173;28;20340;-68
2022/05/27 01:35:51;;;;;;;5.28;2.30;;;9.30;93.40;;;;;;5053500;28;20021;-68
2022/05/27 01:38:45;;;;;;;4.72;2.60;;;9.30;93.10;;;;;;5057247;28;20025;-68
2022/05/27 01:41:20;;;;;;;5.82;3.20;;;9.40;92.60;;;;;;5068966;28;20115;-68
2022/05/27 01:43:59;;;;;;;5.15;2.20;;;9.40;92.80;;;;;;5061038;28;20033;-68
2022/05/27 01:46:41;;;;;;;3.90;2.30;;;9.40;92.90;;;;;;5060366;28;20421;-67
2022/05/27 01:49:09;;;;;;;7.18;2.72;;;9.30;93.00;;;;;;5061399;28;20371;-68
2022/05/27 01:51:46;;;;;;;5.07;2.47;;;9.30;92.80;;;;;;5078547;28;20028;-68
2022/05/27 01:54:21;;;;;;;4.28;2.33;;;9.30;92.20;;;;;;5075197;28;20029;-68
2022/05/27 01:56:52;;;;;;;5.88;2.53;;;9.30;91.90;;;;;;5057576;28;20042;-68
2022/05/27 01:59:27;;;;;;;4.28;2.45;;;9.50;91.70;;;;;;5063508;28;20119;-68
2022/05/27 02:01:59;;;;;;;6.47;3.03;;;9.60;92.80;;;;;;5069536;28;20368;-68
2022/05/27 02:04:40;;;;;;;5.70;2.53;;;9.40;93.30;;;;;;5063771;28;20021;-68
2022/05/27 02:07:13;;;;;;;5.07;2.33;;;9.40;93.20;;;;;;5053942;28;20021;-68
2022/05/27 02:09:46;;;;;;;5.15;2.30;;;9.40;92.20;;;;;;5062900;28;20012;-68
2022/05/27 02:12:25;;;;;;;6.10;2.83;;;9.50;92.30;;;;;;5078216;28;20028;-68
2022/05/27 02:14:59;;;;;;;8.30;2.72;;;9.60;93.10;;;;;;5063368;28;20028;-68
2022/05/27 02:17:31;;;;;;;3.58;2.20;;;9.50;94.00;;;;;;5055949;28;20033;-68
2022/05/27 02:20:05;;;;;;;3.65;2.10;;;9.40;93.60;;;;;;5066466;28;20413;-68
2022/05/27 02:22:41;;;;;;;7.40;2.60;;;9.30;93.40;;;;;;5078017;28;20064;-68
2022/05/27 02:25:19;;;;;;;4.53;2.55;;;9.30;93.20;;;;;;5065343;28;20052;-68
2022/05/27 02:28:04;;;;;;;5.38;2.47;;;9.30;92.70;;;;;;5061937;28;20078;-68
2022/05/27 02:30:33;;;;;;;4.82;3.00;;;9.40;92.10;;;;;;5051407;28;20417;-68
2022/05/27 02:35:50;;;;;;;4.20;2.28;;;9.20;92.80;;;;;;5067491;28;20075;-68
2022/05/27 02:38:17;;;;;;;4.85;2.50;;;9.10;92.10;;;;;;5055323;28;20087;-68
2022/05/27 02:40:54;;;;;;;5.25;2.35;;;9.20;92.10;;;;;;5056630;28;20055;-68
2022/05/27 02:43:30;;;;;;;5.47;2.58;;;9.10;92.20;;;;;;5066942;28;20028;-68
2022/05/27 02:46:30;;;;;;;5.55;2.55;;;9.10;91.70;;;;;;5066042;28;20045;-68
2022/05/27 02:49:17;;;;;;;5.05;2.63;;;9.10;91.40;;;;;;5065080;28;20028;-68
2022/05/27 02:51:52;;;;;;;5.80;2.72;;;9.20;91.50;;;;;;5056816;28;20032;-68
2022/05/27 02:55:11;;;;;;;4.50;2.53;;;9.20;92.10;;;;;;5069375;28;20025;-68
2022/05/27 02:57:44;;;;;;;5.07;2.60;;;9.20;91.50;;;;;;5026740;28;20025;-68
2022/05/27 03:00:19;;;;;;;6.28;2.65;;;9.30;91.90;;;;;;5058997;28;20559;-68
2022/05/27 03:02:45;;;;;;;5.35;2.50;;;9.40;91.50;;;;;;5061776;28;20056;-67
2022/05/27 03:05:14;;;;;;;5.38;2.47;;;9.30;92.60;;;;;;5071740;28;20021;-68
2022/05/27 03:07:58;;;;;;;4.30;2.45;;;9.30;92.70;;;;;;5060434;28;20024;-67
2022/05/27 03:10:52;;;;;;;4.57;2.53;;;9.30;92.60;;;;;;5056368;28;20021;-67
2022/05/27 03:13:32;;;;;;;7.03;3.10;;;9.30;92.50;;;;;;5055684;28;20155;-69
2022/05/27 03:16:24;;;;;;;4.30;2.50;;;9.30;92.10;;;;;;5055344;28;20462;-69
2022/05/27 03:18:52;;;;;;;6.15;2.30;;;9.20;91.70;;;;;;5056667;28;20427;-69
2022/05/27 03:21:32;;;;;;;7.50;2.90;;;9.50;90.90;;;;;;5055864;28;20029;-68
2022/05/27 03:24:15;;;;;;;5.97;2.65;;;9.60;91.10;;;;;;5069527;28;20546;-68
2022/05/27 03:27:08;;;;;;;6.17;2.63;;;9.70;91.90;;;;;;5060374;28;20035;-69
2022/05/27 03:30:02;;;;;;;5.60;2.85;;;9.90;92.70;;;;;;5064119;28;20409;-68
2022/05/27 03:32:37;;;;;;;5.57;2.65;;;10.20;93.40;;;;;;5062452;28;20462;-68
2022/05/27 03:35:25;;;;;;;8.30;2.55;;;10.60;95.80;;;;;;5073870;28;20028;-68
2022/05/27 03:38:15;;;;;;;4.97;2.85;;;10.60;96.40;;;;;;5054561;28;20035;-68
2022/05/27 03:40:48;;;;;;;4.72;2.35;;;10.60;96.90;;;;;;5055531;28;20037;-68
2022/05/27 03:43:15;;;;;;;6.70;2.60;;;10.70;97.00;;;;;;5076526;28;20028;-68
2022/05/27 03:45:53;;;;;;;8.23;2.97;;;10.90;97.20;;;;;;5070014;28;20438;-68
2022/05/27 03:48:20;;;;;;;5.82;2.50;;;11.00;97.50;;;;;;5075846;28;20059;-68
2022/05/27 03:50:48;;;;;;;6.35;2.45;;;11.00;97.40;;;;;;5038979;28;20410;-68
2022/05/27 03:53:15;;;;;;;7.22;2.50;;;11.10;97.40;;;;;;5056395;28;20322;-68
2022/05/27 03:55:49;;;;;;;4.55;2.33;;;11.40;98.00;;;;;;5054607;28;20035;-68
2022/05/27 03:58:17;;;;;;;8.25;2.50;;;11.40;98.00;;;;;;5056372;28;20351;-68
2022/05/27 04:00:43;;;;;;;5.55;2.30;;;11.40;97.90;;;;;;5053910;28;20061;-68
2022/05/27 04:03:12;;;;;;;4.78;2.25;;;11.60;97.90;;;;;;5055114;28;20061;-68
2022/05/27 04:05:38;;;;;;;6.15;2.22;;;11.60;97.90;;;;;;5054541;28;20028;-68
2022/05/27 04:08:05;;;;;;;4.55;2.10;;;11.60;97.80;;;;;;5076119;28;20020;-68
2022/05/27 04:10:33;;;;;;;5.55;2.50;;;11.70;97.90;;;;;;5054393;28;20036;-68
2022/05/27 04:12:59;;;;;;;5.07;2.28;;;11.60;97.90;;;;;;5074971;28;20025;-68
2022/05/27 04:15:25;;;;;;;4.93;2.30;;;11.70;97.80;;;;;;5067859;28;20032;-68
2022/05/27 04:17:50;;;;;;;5.57;2.42;;;11.60;97.80;;;;;;5073676;28;20028;-68
2022/05/27 04:20:18;;;;;;;5.22;2.20;;;11.70;97.80;;;;;;5055342;28;20051;-68
2022/05/27 04:22:44;;;;;;;7.40;3.80;;;11.80;98.00;;;;;;5072567;28;20108;-68
2022/05/27 04:25:11;;;;;;;6.97;2.95;;;11.90;98.00;;;;;;5061231;28;20053;-68
2022/05/27 04:27:37;;;;;;;5.53;2.72;;;12.00;98.00;;;;;;5054133;28;20493;-68
2022/05/27 04:30:06;;;;;;;4.63;2.10;;;12.20;98.00;;;;;;5055866;28;20314;-68
2022/05/27 04:32:31;;;;;;;5.00;1.95;;;12.40;97.80;;;;;;5066561;28;20033;-67
2022/05/27 04:34:57;;;;;;;6.53;2.15;;;12.60;97.60;;;;;;5054187;28;20468;-68
2022/05/27 04:37:24;;;;;;;6.28;2.22;;;12.90;97.10;;;;;;5068736;28;20059;-68
2022/05/27 04:39:50;;;;;;;5.50;2.50;;;13.00;97.00;;;;;;5074562;28;20107;-68
2022/05/27 04:42:17;;;;;;;6.35;2.40;;;13.10;96.80;;;;;;5059222;28;20032;-68
2022/05/27 04:44:43;;;;;;;4.43;2.40;;;13.10;96.50;;;;;;5052271;28;20025;-68
2022/05/27 04:47:09;;;;;;;4.32;2.20;;;13.20;96.20;;;;;;5055421;28;20028;-68
2022/05/27 04:49:51;;;;;;;9.88;2.78;;;13.30;96.20;;;;;;5054734;28;20021;-68
2022/05/27 04:52:18;;;;;;;6.47;2.50;;;13.30;96.00;;;;;;5068308;28;20032;-68
2022/05/27 04:54:43;;;;;;;10.10;2.90;;;13.40;96.20;;;;;;5072064;28;20027;-68
2022/05/27 04:57:15;;;;;;;8.32;2.40;;;13.30;95.80;;;;;;5055140;28;20021;-68
2022/05/27 04:59:41;;;;;;;5.43;2.70;;;13.30;96.00;;;;;;5053710;28;20057;-68
2022/05/27 05:02:07;;;;;;;5.53;2.58;;;13.30;96.20;;;;;;5060089;28;20072;-68
2022/05/27 05:04:33;;;;;;;5.13;2.45;;;13.40;96.20;;;;;;5055544;28;20409;-68
2022/05/27 05:07:07;;;;;;;5.57;2.72;;;13.40;96.20;;;;;;5053976;28;20133;-68
2022/05/27 05:09:33;;;;;;;6.95;2.75;;;13.40;96.20;;;;;;5054313;28;20339;-68
2022/05/27 05:11:59;;;;;;;5.78;2.90;;;13.50;96.00;;;;;;5056918;28;20064;-68
2022/05/27 05:14:25;;;;;;;5.10;2.72;;;13.50;96.00;;;;;;5058184;28;20065;-68
2022/05/27 05:16:51;;;;;;;6.93;2.88;;;13.50;95.60;;;;;;5072649;28;20029;-68
2022/05/27 05:19:16;;;;;;;6.50;2.70;;;13.60;95.80;;;;;;5062002;28;20336;-68
2022/05/27 05:21:42;;;;;;;6.35;2.67;;;13.60;95.70;;;;;;5064475;28;20056;-68
2022/05/27 05:24:07;;;;;;;6.82;2.72;;;13.80;95.70;;;;;;5060057;28;20044;-68
2022/05/27 05:26:33;;;;;;;5.75;2.67;;;13.90;95.00;;;;;;5062843;28;20029;-68
2022/05/27 05:29:01;;;;;;;6.00;2.35;;;14.00;94.90;;;;;;5055584;28;20032;-68
2022/05/27 05:31:32;;;;;;;5.60;2.40;;;14.20;94.30;;;;;;5059139;28;20452;-68
2022/05/27 05:33:59;;;;;;;7.97;2.42;;;14.20;94.10;;;;;;5058980;28;20041;-68
2022/05/27 05:36:26;;;;;;;6.38;2.40;;;14.20;94.10;;;;;;5058553;28;20021;-68
2022/05/27 05:38:52;;;;;;;4.95;2.40;;;14.20;94.40;;;;;;5062128;28;20044;-68
2022/05/27 05:41:26;;;;;;;6.28;2.47;;;14.30;94.50;;;;;;5057254;28;20028;-68
2022/05/27 05:43:54;;;;;;;5.95;2.35;;;14.40;94.00;;;;;;5057080;28;20422;-68
2022/05/27 05:46:20;;;;;;;6.30;2.30;;;14.40;93.90;;;;;;5058542;28;20033;-67
2022/05/27 05:48:48;;;;;;;6.18;2.20;;;14.40;93.80;;;;;;5068970;28;20032;-68
2022/05/27 05:51:14;;;;;;;6.28;2.20;;;14.40;93.70;;;;;;5062075;28;20032;-68
2022/05/27 05:53:40;;;;;;;6.18;2.10;;;14.40;93.40;;;;;;5057626;28;20025;-68
2022/05/27 05:56:11;;;;;;;4.80;2.13;;;14.50;93.20;;;;;;5056481;28;20028;-67
2022/05/27 05:58:37;;;;;;;5.88;2.10;;;14.50;93.50;;;;;;5067864;28;20036;-67
2022/05/27 06:01:03;;;;;;;5.22;2.03;;;14.60;93.40;;;;;;5070870;28;20045;-67
2022/05/27 06:03:28;;;;;;;5.65;2.05;;;14.60;93.10;;;;;;5057078;28;20033;-67
2022/05/27 06:05:54;;;;;;;7.80;2.67;;;14.70;93.30;;;;;;5058059;28;20417;-67
2022/05/27 06:08:23;;;;;;;5.32;2.35;;;14.90;93.00;;;;;;5057646;28;20339;-68
2022/05/27 06:10:49;;;;;;;6.72;2.17;;;14.90;92.70;;;;;;5056970;28;20444;-69
2022/05/27 06:13:15;;;;;;;8.35;2.30;;;14.90;93.10;;;;;;5058008;28;20025;-68
2022/05/27 06:15:45;;;;;;;5.40;2.40;;;15.00;93.00;;;;;;5056630;28;20136;-69
2022/05/27 06:18:13;;;;;;;6.40;2.45;;;14.80;92.90;;;;;;5057715;28;20033;-68
2022/05/27 06:20:40;;;;;;;5.25;2.35;;;14.70;93.30;;;;;;5057736;28;20025;-68
2022/05/27 06:23:07;;;;;;;5.40;2.17;;;14.60;93.60;;;;;;5075000;28;20025;-67
2022/05/27 06:25:33;;;;;;;6.30;2.85;;;14.60;93.30;;;;;;5071956;28;20029;-67
2022/05/27 06:36:18;;;;;;;5.97;2.22;;;14.40;94.00;;;;;;5055582;28;20066;-67
2022/05/27 06:38:44;;;;;;;7.65;2.70;;;14.50;94.00;;;;;;5055972;28;20025;-68
2022/05/27 06:41:10;;;;;;;5.85;2.47;;;14.60;93.80;;;;;;5056491;28;20039;-68
2022/05/27 06:43:35;;;;;;;5.38;2.45;;;14.60;93.80;;;;;;5056022;28;20020;-67
2022/05/27 06:46:03;;;;;;;5.82;2.15;;;14.70;93.40;;;;;;5052760;28;20020;-67
2022/05/27 06:48:28;;;;;;;4.80;2.28;;;14.90;93.20;;;;;;5053383;28;20017;-67
2022/05/27 06:50:54;;;;;;;5.43;2.10;;;14.90;92.70;;;;;;5048666;28;20474;-68
2022/05/27 06:53:20;;;;;;;5.85;2.58;;;14.90;93.10;;;;;;5052967;28;20541;-67
2022/05/27 06:55:50;;;;;;;5.28;2.13;;;14.80;93.10;;;;;;5046390;28;20321;-68
2022/05/27 06:58:15;;;;;;;7.15;2.75;;;14.70;93.20;;;;;;5055997;28;20087;-67
2022/05/27 07:00:42;;;;;;;6.72;2.28;;;14.60;93.40;;;;;;5053811;28;20389;-66
2022/05/27 07:03:07;;;;;;;5.70;2.40;;;14.70;93.60;;;;;;5055405;28;20032;-67
2022/05/27 07:05:34;;;;;;;5.93;2.40;;;14.70;93.50;;;;;;5056404;28;20025;-66
2022/05/27 07:08:06;;;;;;;6.88;2.47;;;14.60;93.50;;;;;;5053606;28;20409;-68
2022/05/27 07:10:32;;;;;;;6.20;2.38;;;14.50;93.90;;;;;;5052309;28;20025;-66
2022/05/27 07:12:59;;;;;;;7.53;2.75;;;14.50;94.30;;;;;;5055563;28;20032;-68
2022/05/27 07:15:29;;;;;;;4.57;2.00;;;14.50;94.40;;;;;;5060740;28;20086;-67
2022/05/27 07:17:57;;;;;;;5.60;2.10;;;14.60;94.50;;;;;;5056496;28;20066;-66
2022/05/27 07:20:26;;;;;;;6.00;2.38;;;14.70;94.60;;;;;;5052720;28;20112;-67
2022/05/27 07:22:52;;;;;;;5.35;2.42;;;14.90;94.30;;;;;;5055658;28;20033;-66
2022/05/27 07:25:17;;;;;;;6.68;2.97;;;14.80;93.60;;;;;;5055018;28;20029;-67
2022/05/27 07:27:44;;;;;;;6.07;2.30;;;14.70;93.60;;;;;;5053056;28;20443;-65
2022/05/27 07:30:14;;;;;;;5.47;2.03;;;14.60;93.60;;;;;;5054987;28;20025;-66
2022/05/27 07:32:41;;;;;;;6.28;2.20;;;14.40;93.60;;;;;;5057646;28;20047;-66
2022/05/27 07:35:08;;;;;;;6.07;2.55;;;14.50;93.90;;;;;;5053763;28;20028;-65
2022/05/27 07:37:34;;;;;;;8.48;2.58;;;14.50;93.50;;;;;;5058428;28;20020;-67
2022/05/27 07:40:00;;;;;;;5.03;2.65;;;14.50;93.40;;;;;;5053605;28;20025;-67
2022/05/27 07:42:26;;;;;;;6.60;2.67;;;14.50;93.30;;;;;;5052110;28;20112;-65
2022/05/27 07:44:52;;;;;;;5.43;2.33;;;14.50;93.60;;;;;;5054520;28;20099;-66
2022/05/27 07:47:19;;;;;;;7.28;2.88;;;14.50;93.50;;;;;;5060469;28;20013;-65
2022/05/27 07:49:45;;;;;;;5.53;2.75;;;14.50;93.60;;;;;;5051374;28;20021;-65
2022/05/27 07:52:11;;;;;;;5.07;2.80;;;14.40;93.60;;;;;;5054755;28;20035;-65
2022/05/27 07:54:37;;;;;;;6.55;3.03;;;14.50;94.00;;;;;;5053746;28;20074;-65
2022/05/27 07:57:23;;;;;;;5.47;3.10;;;14.50;93.70;;;;;;5056254;28;20024;-67
2022/05/27 08:00:09;;;;;;;6.05;2.60;;;14.60;93.50;;;;;;5056696;28;20041;-67
2022/05/27 08:02:36;;;;;;;4.75;2.30;;;14.70;93.20;;;;;;5054312;28;20044;-67
2022/05/27 08:05:03;;;;;;;4.65;2.17;;;14.80;92.90;;;;;;5053249;28;20079;-67
2022/05/27 08:07:28;;;;;;;6.07;2.60;;;14.90;93.00;;;;;;5056026;28;20033;-67
2022/05/27 08:09:54;;;;;;;5.55;2.58;;;14.90;92.80;;;;;;5053316;28;20414;-68
2022/05/27 08:12:23;;;;;;;6.47;3.03;;;14.90;92.90;;;;;;5053591;28;20028;-67
2022/05/27 08:14:48;;;;;;;9.15;2.80;;;14.80;92.80;;;;;;5058995;28;20333;-67
2022/05/27 08:17:14;;;;;;;5.95;2.40;;;14.80;92.90;;;;;;5055189;28;20017;-67
2022/05/27 08:19:40;;;;;;;6.13;2.70;;;14.80;93.40;;;;;;5059186;28;20043;-72
2022/05/27 08:22:06;;;;;;;6.32;2.10;;;14.80;93.10;;;;;;5052363;28;20021;-66
2022/05/27 08:24:31;;;;;;;7.13;3.47;;;14.90;93.70;;;;;;5051838;28;20037;-67
2022/05/27 08:26:57;;;;;;;8.40;4.82;;;14.90;93.50;;;;;;5053882;28;20033;-67
2022/05/27 08:29:23;;;;;;;7.60;2.65;;;15.00;92.90;;;;;;5057910;28;20517;-66
2022/05/27 08:31:48;;;;;;;8.05;2.53;;;15.00;92.70;;;;;;5055388;28;20083;-67
2022/05/27 08:39:47;;;;;;;4.78;2.22;;;15.20;93.00;;;;;;5056368;28;20483;-66
2022/05/27 08:42:39;;;;;;;5.25;2.22;;;15.30;91.90;;;;;;5057414;28;20106;-66
2022/05/27 08:45:14;;;;;;;5.10;2.20;;;15.20;92.00;;;;;;5054708;28;20056;-66
2022/05/27 08:47:54;;;;;;;5.07;2.33;;;15.20;91.70;;;;;;5058418;28;20313;-67
2022/05/27 08:50:46;;;;;;;4.38;2.20;;;15.20;91.80;;;;;;5060885;28;20444;-67
2022/05/27 08:53:14;;;;;;;5.95;2.30;;;15.20;91.70;;;;;;5056915;28;20111;-66
2022/05/27 08:59:27;;;;;;;4.57;2.30;;;15.20;92.10;;;;;;5056058;28;20059;-66
2022/05/27 09:02:07;;;;;;;6.93;2.45;;;15.20;91.90;;;;;;5058763;28;20041;-67
2022/05/27 09:04:54;;;;;;;6.13;2.53;;;15.20;92.30;;;;;;5071504;28;20029;-67
2022/05/27 09:07:35;;;;;;;6.40;2.25;;;15.30;92.20;;;;;;5074212;28;20358;-67
2022/05/27 09:10:09;;;;;;;6.05;2.50;;;15.70;90.30;;;;;;5056052;28;20056;-67
2022/05/27 09:12:59;;;;;;;6.63;2.28;;;15.90;89.90;;;;;;5057361;28;20116;-67
2022/05/27 09:15:41;;;;;;;5.30;2.05;;;16.10;89.10;;;;;;5058268;28;20029;-66
2022/05/27 09:18:31;;;;;;;6.32;2.65;;;16.40;88.40;;;;;;5056919;28;20338;-67
2022/05/27 09:21:44;;;;;;;4.75;2.38;;;16.20;88.70;;;;;;5058461;28;20108;-66
2022/05/27 09:24:47;;;;;;;8.23;2.30;;;15.90;89.50;;;;;;5055015;28;20128;-67
2022/05/27 09:27:32;;;;;;;6.70;2.30;;;15.90;89.50;;;;;;5057186;28;20436;-64
2022/05/27 09:30:07;;;;;;;7.45;2.78;;;15.80;89.50;;;;;;5058101;28;20037;-66
2022/05/27 09:33:00;;;;;;;3.90;1.80;;;15.90;89.60;;;;;;5057699;28;20090;-67
2022/05/27 09:35:46;;;;;;;7.55;2.42;;;16.10;89.80;;;;;;5056888;28;20029;-66
2022/05/27 09:38:34;;;;;;;4.88;2.38;;;16.10;89.10;;;;;;5058622;28;20021;-65
2022/05/27 09:41:23;;;;;;;7.57;2.40;;;16.00;89.70;;;;;;5056557;28;20033;-65
2022/05/27 09:44:16;;;;;;;5.18;2.35;;;16.10;89.70;;;;;;5057682;28;20025;-66
2022/05/27 09:46:42;;;;;;;8.02;2.20;;;16.30;89.00;;;;;;5047791;28;20063;-66
2022/05/27 09:49:07;;;;;;;4.55;2.50;;;16.30;89.50;;;;;;5055313;28;20056;-65
2022/05/27 09:51:33;;;;;;;7.28;2.50;;;16.40;88.80;;;;;;5058029;28;20030;-65
2022/05/27 09:54:31;;;;;;;5.15;2.30;;;16.10;89.30;;;;;;5062335;28;20069;-65
2022/05/27 09:57:16;;;;;;;5.45;2.60;;;15.90;90.20;;;;;;5054856;28;20506;-66
2022/05/27 09:59:53;;;;;;;7.40;2.70;;;16.10;89.70;;;;;;5068084;28;20468;-66
2022/05/27 10:02:28;;;;;;;4.38;2.25;;;16.30;88.90;;;;;;5068647;28;20044;-66
2022/05/27 10:05:13;;;;;;;;;;;16.40;88.80;;;;;;5066390;28;20024;-66
2022/05/27 10:07:45;;;;;;;;;;;16.80;87.40;;;;;;5066065;28;20213;-67
2022/05/27 10:10:30;;;;;;;10.95;3.70;;;17.30;87.00;;;;;;5056802;28;19909;-67
2022/05/27 10:13:13;;;;;;;5.43;2.30;;;17.40;86.50;;;;;;5056366;28;20036;-65
2022/05/27 10:15:39;;;;;;;11.23;2.55;;;17.50;86.50;;;;;;5045599;28;20029;-66
2022/05/27 10:18:19;;;;;;;5.97;2.35;;;17.60;85.40;;;;;;5055702;28;20103;-66
2022/05/27 10:20:58;;;;;;;4.78;2.10;;;18.10;84.20;;;;;;5052753;28;20033;-66
2022/05/27 10:23:26;;;;;;;5.10;2.38;;;18.80;82.10;;;;;;5053534;28;20317;-66
2022/05/27 10:25:52;;;;;;;4.50;2.00;;;18.90;81.30;;;;;;5056114;28;20070;-67
2022/05/27 10:28:29;;;;;;;5.57;2.00;;;18.90;81.80;;;;;;5057337;28;20095;-66
2022/05/27 10:31:14;;;;;;;4.63;2.08;;;18.10;82.40;;;;;;5052519;28;20036;-66
2022/05/27 10:33:49;;;;;;;5.68;2.17;;;17.80;84.20;;;;;;5053041;28;20033;-67
2022/05/27 10:36:35;;;;;;;6.07;2.40;;;17.50;84.90;;;;;;5055375;28;20032;-67
2022/05/27 10:39:13;;;;;;;7.90;2.13;;;17.70;84.70;;;;;;5056061;28;20029;-66
2022/05/27 10:42:05;;;;;;;4.70;2.10;;;18.70;83.10;;;;;;5047139;28;20191;-66
2022/05/27 10:44:49;;;;;;;4.82;1.88;;;19.70;79.70;;;;;;5035077;28;20056;-66
2022/05/27 10:47:35;;;;;;;;;;;20.30;77.20;;;;;;5038567;28;20025;-66
2022/05/27 10:50:31;;;;;;;5.20;2.38;;;20.20;78.20;;;;;;5034196;28;19962;-67
2022/05/27 10:53:17;;;;;;;5.03;2.15;;;19.40;79.10;;;;;;5040570;28;20095;-65
2022/05/27 10:55:50;;;;;;;5.78;2.20;;;18.70;81.00;;;;;;5033908;28;20033;-65
2022/05/27 11:02:25;;;;;;;5.57;2.20;;;18.70;81.90;;;;;;5036836;28;20099;-66
2022/05/27 11:05:04;;;;;;;;;;;19.10;82.00;;;;;;5034097;28;20045;-66
2022/05/27 11:07:44;;;;;;;4.63;1.83;;;20.40;79.20;;;;;;5015719;28;19967;-67
2022/05/27 11:10:39;;;;;;;5.45;1.90;;;19.90;77.90;;;;;;5051923;28;20127;-66
2022/05/27 11:16:01;;;;;;;7.25;1.80;;;19.00;77.80;;;;;;5053306;28;20030;-67
2022/05/27 11:18:58;;;;;;;4.25;2.00;;;18.80;78.90;;;;;;5054164;28;20021;-66
2022/05/27 11:21:46;;;;;;;6.20;2.05;;;19.40;77.40;;;;;;5055973;28;20593;-67
2022/05/27 11:24:24;;;;;;;3.80;1.67;;;18.90;76.80;;;;;;5043001;28;20072;-66
2022/05/27 11:27:02;;;;;;;4.53;1.40;;;19.50;77.30;;;;;;5044960;28;20025;-65
2022/05/27 11:29:54;;;;;;;3.92;1.60;;;20.10;74.10;;;;;;5049159;28;20455;-65
2022/05/27 11:32:53;;;;;;;4.28;1.50;;;19.40;74.10;;;;;;5053262;28;20040;-65
2022/05/27 11:35:44;;;;;;;8.63;2.10;;;18.80;75.80;;;;;;5052873;28;20180;-65
2022/05/27 11:38:13;;;;;;;4.43;2.00;;;18.70;77.40;;;;;;5051843;28;20455;-67
2022/05/27 11:40:58;;;;;;;9.07;2.15;;;18.70;78.00;;;;;;5054841;28;20429;-66
2022/05/27 11:43:46;;;;;;;4.38;1.60;;;18.80;78.20;;;;;;5044039;28;20061;-66
2022/05/27 11:46:34;;;;;;;4.03;1.58;;;18.60;78.40;;;;;;5055192;28;20025;-66
2022/05/27 11:49:42;;;;;;;3.95;1.60;;;18.50;79.30;;;;;;5037872;28;20449;-66
2022/05/27 11:52:08;;;;;;;5.15;1.83;;;19.00;78.10;;;;;;5047705;28;20501;-65
2022/05/27 11:54:39;;;;;;;4.63;1.63;;;19.00;77.60;;;;;;5052548;28;20044;-66
2022/05/27 11:57:40;;;;;;;5.10;1.52;;;18.90;76.80;;;;;;5046357;28;20532;-67
2022/05/27 12:00:12;;;;;;;7.00;1.65;;;19.10;76.90;;;;;;5045605;28;20044;-65
2022/05/27 12:03:02;;;;;;;4.72;1.70;;;19.70;75.70;;;;;;5052142;28;20381;-65
2022/05/27 12:05:35;;;;;;;5.72;1.65;;;19.80;74.50;;;;;;5048559;28;20048;-65
2022/05/27 12:08:34;;;;;;;6.57;1.83;;;19.90;75.00;;;;;;5039342;28;20302;-67
2022/05/27 12:11:25;;;;;;;3.05;1.30;;;19.90;74.80;;;;;;5040390;28;20040;-67
2022/05/27 12:14:02;;;;;;;5.00;1.58;;;20.20;73.80;;;;;;5047855;28;20033;-67
2022/05/27 12:16:35;;;;;;;4.97;1.60;;;20.10;72.90;;;;;;5054210;28;20040;-65
2022/05/27 12:19:26;;;;;;;3.97;1.23;;;19.70;74.10;;;;;;5037783;28;20040;-66
2022/05/27 12:22:18;;;;;;;3.75;1.67;;;19.50;74.30;;;;;;5053635;28;20021;-67
2022/05/27 12:24:49;;;;;;;3.85;1.17;;;19.70;73.70;;;;;;5050402;28;20102;-65
2022/05/27 12:27:19;;;;;;;3.47;1.45;;;19.70;74.10;;;;;;5052559;28;20112;-65
2022/05/27 12:29:47;;;;;;;6.07;1.65;;;19.60;74.20;;;;;;5052177;28;20439;-65
2022/05/27 12:32:14;;;;;;;4.00;1.25;;;19.60;74.30;;;;;;5054580;28;20040;-67
2022/05/27 12:34:43;;;;;;;6.57;1.70;;;19.30;75.90;;;;;;5051858;28;20032;-65
2022/05/27 12:37:20;;;;;;;4.68;1.20;;;19.30;76.00;;;;;;5053759;28;20370;-67
2022/05/27 12:39:48;;;;;;;3.22;1.50;;;19.10;76.70;;;;;;5041565;28;20034;-78
2022/05/27 12:42:17;;;;;;;4.53;1.50;;;19.20;75.90;;;;;;5062229;28;20025;-67
2022/05/27 12:44:47;;;;;;;4.57;1.55;;;19.30;75.40;;;;;;5054036;28;20025;-65
2022/05/27 12:47:20;;;;;;;4.40;1.92;;;19.00;76.40;;;;;;5045494;28;20029;-66
2022/05/27 12:50:02;;;;;;;11.68;4.65;;;19.90;75.80;;;;;;5051115;28;20100;-65
2022/05/27 12:52:28;;;;;;;3.53;1.50;;;20.40;74.40;;;;;;5070550;28;20021;-65
2022/05/27 12:54:59;;;;;;;4.88;1.80;;;20.10;73.90;;;;;;5051909;28;20036;-65
2022/05/27 13:03:39;;;;;;;3.10;1.23;;;21.40;71.70;;;;;;5053873;28;20083;-64
2022/05/27 13:06:20;;;;;;;3.95;1.40;;;21.80;70.50;;;;;;5049680;28;20027;-65
2022/05/27 13:08:47;;;;;;;5.18;1.30;;;21.80;70.60;;;;;;5048472;28;20060;-65
2022/05/27 13:11:22;;;;;;;3.97;1.63;;;20.80;72.30;;;;;;5054558;28;20017;-65
2022/05/27 13:13:50;;;;;;;3.42;1.40;;;20.40;73.30;;;;;;5055936;28;20035;-65
2022/05/27 13:16:29;;;;;;;3.08;1.33;;;20.30;74.40;;;;;;5053638;28;20025;-67
2022/05/27 13:19:05;;;;;;;4.68;1.70;;;20.30;73.50;;;;;;5055311;28;20109;-65
2022/05/27 13:21:47;;;;;;;4.60;1.60;;;20.00;74.20;;;;;;5054166;28;20317;-66
2022/05/27 13:24:13;;;;;;;5.13;1.58;;;19.70;74.60;;;;;;5053435;28;20051;-64
2022/05/27 13:26:46;;;;;;;6.38;2.30;;;19.50;75.50;;;;;;5055801;28;20024;-65
2022/05/27 13:29:28;;;;;;;5.90;2.20;;;19.10;76.50;;;;;;5052229;28;20298;-66
2022/05/27 13:32:13;;;;;;;5.28;1.88;;;18.80;77.50;;;;;;5054346;28;20039;-65
2022/05/27 13:34:41;;;;;;;3.92;1.48;;;19.00;76.90;;;;;;5049306;28;20021;-65
2022/05/27 13:37:39;;;;;;;3.95;1.45;;;19.20;77.20;;;;;;5057813;28;20032;-65
2022/05/27 13:40:35;;;;;;;4.07;1.38;;;19.70;76.50;;;;;;5052634;28;20021;-65
2022/05/27 13:43:28;;;;;;;4.40;1.40;;;20.70;73.80;;;;;;5045907;28;20029;-66
2022/05/27 13:45:55;;;;;;;8.25;1.67;;;21.90;70.90;;;;;;5055296;28;20048;-65
2022/05/27 13:48:46;;;;;;;4.78;1.83;;;21.60;70.00;;;;;;5055853;28;20029;-66
2022/05/27 13:51:13;;;;;;;4.40;1.50;;;20.80;72.30;;;;;;5054478;28;20028;-65
2022/05/27 13:53:40;;;;;;;3.35;1.33;;;20.60;73.20;;;;;;5055945;28;20364;-66
2022/05/27 13:56:34;;;;;;;2.80;1.25;;;20.70;72.90;;;;;;5050470;28;20317;-66
2022/05/27 13:59:19;;;;;;;6.00;1.65;;;21.70;71.60;;;;;;5052432;28;20355;-66
2022/05/27 14:01:56;;;;;;;3.92;1.65;;;21.60;70.40;;;;;;5054719;28;20041;-66
2022/05/27 14:04:24;;;;;;;5.22;1.50;;;20.40;73.20;;;;;;5053343;28;20100;-66